sensor_id;sensor_type;location;lat;lon;timestamp;P1;durP1;ratioP1;P2;durP2;ratioP2
26574;SDS011;67165;50.256;10.978;2023-08-17T00:01:34;2.17;;;1.42;;
26574;SDS011;67165;50.256;10.978;2023-08-17T00:04:00;6.70;;;1.50;;
26574;SDS011;67165;50.256;10.978;2023-08-17T00:06:25;4.03;;;1.20;;
26574;SDS011;67165;50.256;10.978;2023-08-17T00:08:51;1.65;;;1.40;;
26574;SDS011;67165;50.256;10.978;2023-08-17T00:11:17;3.97;;;1.58;;
26574;SDS011;67165;50.256;10.978;2023-08-17T00:13:42;2.45;;;1.30;;
26574;SDS011;67165;50.256;10.978;2023-08-17T00:16:08;2.10;;;1.33;;
26574;SDS011;67165;50.256;10.978;2023-08-17T00:18:34;2.92;;;1.30;;
26574;SDS011;67165;50.256;10.978;2023-08-17T00:20:59;4.50;;;1.60;;
26574;SDS011;67165;50.256;10.978;2023-08-17T00:23:25;5.47;;;1.40;;
26574;SDS011;67165;50.256;10.978;2023-08-17T00:25:51;3.50;;;1.80;;
26574;SDS011;67165;50.256;10.978;2023-08-17T00:28:16;3.50;;;1.60;;
26574;SDS011;67165;50.256;10.978;2023-08-17T00:30:42;3.42;;;1.85;;
26574;SDS011;67165;50.256;10.978;2023-08-17T00:33:08;2.03;;;1.60;;
26574;SDS011;67165;50.256;10.978;2023-08-17T00:35:33;3.50;;;1.65;;
26574;SDS011;67165;50.256;10.978;2023-08-17T00:37:59;2.75;;;1.50;;
26574;SDS011;67165;50.256;10.978;2023-08-17T00:40:25;4.25;;;1.70;;
26574;SDS011;67165;50.256;10.978;2023-08-17T00:42:50;2.78;;;1.73;;
26574;SDS011;67165;50.256;10.978;2023-08-17T00:45:17;4.03;;;1.98;;
26574;SDS011;67165;50.256;10.978;2023-08-17T00:47:43;3.25;;;2.00;;
26574;SDS011;67165;50.256;10.978;2023-08-17T00:50:09;4.07;;;2.03;;
26574;SDS011;67165;50.256;10.978;2023-08-17T00:52:36;3.00;;;2.05;;
26574;SDS011;67165;50.256;10.978;2023-08-17T00:55:03;3.05;;;1.80;;
26574;SDS011;67165;50.256;10.978;2023-08-17T00:57:29;2.45;;;1.75;;
26574;SDS011;67165;50.256;10.978;2023-08-17T00:59:56;2.88;;;1.90;;
26574;SDS011;67165;50.256;10.978;2023-08-17T01:02:23;2.05;;;1.60;;
26574;SDS011;67165;50.256;10.978;2023-08-17T01:04:49;3.40;;;1.80;;
26574;SDS011;67165;50.256;10.978;2023-08-17T01:07:15;4.40;;;1.80;;
26574;SDS011;67165;50.256;10.978;2023-08-17T01:09:40;4.80;;;1.50;;
26574;SDS011;67165;50.256;10.978;2023-08-17T01:12:28;4.45;;;1.70;;
26574;SDS011;67165;50.256;10.978;2023-08-17T01:15:07;4.43;;;1.88;;
26574;SDS011;67165;50.256;10.978;2023-08-17T01:17:52;3.05;;;1.63;;
26574;SDS011;67165;50.256;10.978;2023-08-17T01:20:23;3.65;;;1.80;;
26574;SDS011;67165;50.256;10.978;2023-08-17T01:22:50;5.97;;;2.03;;
26574;SDS011;67165;50.256;10.978;2023-08-17T01:25:22;5.18;;;1.77;;
26574;SDS011;67165;50.256;10.978;2023-08-17T01:27:47;2.92;;;1.95;;
26574;SDS011;67165;50.256;10.978;2023-08-17T01:30:14;4.18;;;2.15;;
26574;SDS011;67165;50.256;10.978;2023-08-17T01:32:48;2.85;;;1.77;;
26574;SDS011;67165;50.256;10.978;2023-08-17T01:38:12;3.38;;;2.10;;
26574;SDS011;67165;50.256;10.978;2023-08-17T01:40:42;3.95;;;2.50;;
26574;SDS011;67165;50.256;10.978;2023-08-17T01:43:10;3.53;;;1.98;;
26574;SDS011;67165;50.256;10.978;2023-08-17T01:45:36;2.80;;;2.40;;
26574;SDS011;67165;50.256;10.978;2023-08-17T01:48:01;4.97;;;2.65;;
26574;SDS011;67165;50.256;10.978;2023-08-17T01:50:27;3.38;;;2.30;;
26574;SDS011;67165;50.256;10.978;2023-08-17T01:52:53;5.40;;;2.70;;
26574;SDS011;67165;50.256;10.978;2023-08-17T01:55:20;4.93;;;2.33;;
26574;SDS011;67165;50.256;10.978;2023-08-17T01:57:46;4.85;;;2.75;;
26574;SDS011;67165;50.256;10.978;2023-08-17T02:00:12;4.95;;;2.55;;
26574;SDS011;67165;50.256;10.978;2023-08-17T02:02:38;3.47;;;2.50;;
26574;SDS011;67165;50.256;10.978;2023-08-17T02:05:04;4.70;;;2.50;;
26574;SDS011;67165;50.256;10.978;2023-08-17T02:07:30;4.57;;;2.78;;
26574;SDS011;67165;50.256;10.978;2023-08-17T02:09:55;3.70;;;2.17;;
26574;SDS011;67165;50.256;10.978;2023-08-17T02:12:21;4.32;;;2.80;;
26574;SDS011;67165;50.256;10.978;2023-08-17T02:14:46;4.03;;;2.47;;
26574;SDS011;67165;50.256;10.978;2023-08-17T02:17:12;4.30;;;2.50;;
26574;SDS011;67165;50.256;10.978;2023-08-17T02:19:38;3.25;;;2.30;;
26574;SDS011;67165;50.256;10.978;2023-08-17T02:22:04;6.40;;;2.70;;
26574;SDS011;67165;50.256;10.978;2023-08-17T02:24:30;3.72;;;2.65;;
26574;SDS011;67165;50.256;10.978;2023-08-17T02:26:55;2.95;;;2.67;;
26574;SDS011;67165;50.256;10.978;2023-08-17T02:29:21;5.53;;;2.70;;
26574;SDS011;67165;50.256;10.978;2023-08-17T02:31:47;8.02;;;2.88;;
26574;SDS011;67165;50.256;10.978;2023-08-17T02:34:12;4.72;;;2.70;;
26574;SDS011;67165;50.256;10.978;2023-08-17T02:36:38;3.55;;;2.38;;
26574;SDS011;67165;50.256;10.978;2023-08-17T02:39:04;4.28;;;2.53;;
26574;SDS011;67165;50.256;10.978;2023-08-17T02:41:30;3.42;;;2.72;;
26574;SDS011;67165;50.256;10.978;2023-08-17T02:43:57;4.35;;;2.95;;
26574;SDS011;67165;50.256;10.978;2023-08-17T02:46:22;2.80;;;2.50;;
26574;SDS011;67165;50.256;10.978;2023-08-17T02:48:48;4.32;;;2.60;;
26574;SDS011;67165;50.256;10.978;2023-08-17T02:51:14;3.38;;;2.22;;
26574;SDS011;67165;50.256;10.978;2023-08-17T02:53:40;2.92;;;2.53;;
26574;SDS011;67165;50.256;10.978;2023-08-17T02:56:06;3.63;;;2.40;;
26574;SDS011;67165;50.256;10.978;2023-08-17T02:58:32;4.97;;;2.50;;
26574;SDS011;67165;50.256;10.978;2023-08-17T03:00:57;3.92;;;2.50;;
26574;SDS011;67165;50.256;10.978;2023-08-17T03:03:23;3.55;;;2.55;;
26574;SDS011;67165;50.256;10.978;2023-08-17T03:05:48;6.15;;;2.60;;
26574;SDS011;67165;50.256;10.978;2023-08-17T03:08:14;4.43;;;2.60;;
26574;SDS011;67165;50.256;10.978;2023-08-17T03:10:40;4.60;;;2.83;;
26574;SDS011;67165;50.256;10.978;2023-08-17T03:13:05;8.52;;;3.10;;
26574;SDS011;67165;50.256;10.978;2023-08-17T03:15:31;6.25;;;2.90;;
26574;SDS011;67165;50.256;10.978;2023-08-17T03:17:56;7.15;;;2.63;;
26574;SDS011;67165;50.256;10.978;2023-08-17T03:20:22;4.00;;;2.67;;
26574;SDS011;67165;50.256;10.978;2023-08-17T03:22:48;4.80;;;2.90;;
26574;SDS011;67165;50.256;10.978;2023-08-17T03:25:13;3.50;;;2.85;;
26574;SDS011;67165;50.256;10.978;2023-08-17T03:27:39;4.10;;;2.90;;
26574;SDS011;67165;50.256;10.978;2023-08-17T03:30:05;5.82;;;2.95;;
26574;SDS011;67165;50.256;10.978;2023-08-17T03:32:31;5.45;;;3.17;;
26574;SDS011;67165;50.256;10.978;2023-08-17T03:34:56;3.75;;;3.17;;
26574;SDS011;67165;50.256;10.978;2023-08-17T03:37:22;4.88;;;3.22;;
26574;SDS011;67165;50.256;10.978;2023-08-17T03:39:47;5.10;;;3.00;;
26574;SDS011;67165;50.256;10.978;2023-08-17T03:42:13;5.18;;;3.45;;
26574;SDS011;67165;50.256;10.978;2023-08-17T03:44:39;5.93;;;3.20;;
26574;SDS011;67165;50.256;10.978;2023-08-17T03:47:04;8.50;;;3.30;;
26574;SDS011;67165;50.256;10.978;2023-08-17T03:49:30;5.45;;;3.00;;
26574;SDS011;67165;50.256;10.978;2023-08-17T03:51:56;2.97;;;2.78;;
26574;SDS011;67165;50.256;10.978;2023-08-17T03:54:21;3.65;;;2.90;;
26574;SDS011;67165;50.256;10.978;2023-08-17T03:56:47;4.45;;;2.90;;
26574;SDS011;67165;50.256;10.978;2023-08-17T03:59:13;5.65;;;3.13;;
26574;SDS011;67165;50.256;10.978;2023-08-17T04:01:39;4.65;;;2.90;;
26574;SDS011;67165;50.256;10.978;2023-08-17T04:04:05;4.97;;;3.13;;
26574;SDS011;67165;50.256;10.978;2023-08-17T04:06:30;5.00;;;3.20;;
26574;SDS011;67165;50.256;10.978;2023-08-17T04:08:56;3.92;;;3.00;;
26574;SDS011;67165;50.256;10.978;2023-08-17T04:11:21;4.68;;;3.55;;
26574;SDS011;67165;50.256;10.978;2023-08-17T04:13:47;5.05;;;3.80;;
26574;SDS011;67165;50.256;10.978;2023-08-17T04:16:13;7.15;;;3.70;;
26574;SDS011;67165;50.256;10.978;2023-08-17T04:18:38;7.05;;;4.05;;
26574;SDS011;67165;50.256;10.978;2023-08-17T04:21:04;5.93;;;4.45;;
26574;SDS011;67165;50.256;10.978;2023-08-17T04:23:30;7.28;;;4.93;;
26574;SDS011;67165;50.256;10.978;2023-08-17T04:25:55;15.38;;;6.15;;
26574;SDS011;67165;50.256;10.978;2023-08-17T04:28:21;6.35;;;5.70;;
26574;SDS011;67165;50.256;10.978;2023-08-17T04:30:46;10.18;;;6.80;;
26574;SDS011;67165;50.256;10.978;2023-08-17T04:33:12;9.02;;;8.02;;
26574;SDS011;67165;50.256;10.978;2023-08-17T04:35:38;8.40;;;7.60;;
26574;SDS011;67165;50.256;10.978;2023-08-17T04:38:04;8.52;;;7.60;;
26574;SDS011;67165;50.256;10.978;2023-08-17T04:40:29;12.43;;;8.20;;
26574;SDS011;67165;50.256;10.978;2023-08-17T04:42:55;10.20;;;6.97;;
26574;SDS011;67165;50.256;10.978;2023-08-17T04:45:21;8.95;;;7.38;;
26574;SDS011;67165;50.256;10.978;2023-08-17T04:47:48;7.75;;;6.68;;
26574;SDS011;67165;50.256;10.978;2023-08-17T04:50:14;13.48;;;8.20;;
26574;SDS011;67165;50.256;10.978;2023-08-17T04:52:42;9.55;;;7.55;;
26574;SDS011;67165;50.256;10.978;2023-08-17T04:55:10;10.00;;;8.52;;
26574;SDS011;67165;50.256;10.978;2023-08-17T04:57:36;11.02;;;9.90;;
26574;SDS011;67165;50.256;10.978;2023-08-17T05:00:02;10.90;;;9.52;;
26574;SDS011;67165;50.256;10.978;2023-08-17T05:02:33;10.80;;;9.43;;
26574;SDS011;67165;50.256;10.978;2023-08-17T05:04:58;12.23;;;9.52;;
26574;SDS011;67165;50.256;10.978;2023-08-17T05:07:24;11.77;;;9.55;;
26574;SDS011;67165;50.256;10.978;2023-08-17T05:09:50;11.30;;;9.77;;
26574;SDS011;67165;50.256;10.978;2023-08-17T05:12:15;10.82;;;9.25;;
26574;SDS011;67165;50.256;10.978;2023-08-17T05:14:41;10.90;;;9.68;;
26574;SDS011;67165;50.256;10.978;2023-08-17T05:17:07;11.07;;;9.93;;
26574;SDS011;67165;50.256;10.978;2023-08-17T05:19:32;11.15;;;9.50;;
26574;SDS011;67165;50.256;10.978;2023-08-17T05:21:58;10.85;;;9.60;;
26574;SDS011;67165;50.256;10.978;2023-08-17T05:24:23;14.63;;;10.77;;
26574;SDS011;67165;50.256;10.978;2023-08-17T05:26:49;11.48;;;10.27;;
26574;SDS011;67165;50.256;10.978;2023-08-17T05:29:15;11.80;;;10.40;;
26574;SDS011;67165;50.256;10.978;2023-08-17T05:31:40;11.68;;;10.07;;
26574;SDS011;67165;50.256;10.978;2023-08-17T05:34:06;12.40;;;11.10;;
26574;SDS011;67165;50.256;10.978;2023-08-17T05:36:32;12.20;;;11.00;;
26574;SDS011;67165;50.256;10.978;2023-08-17T05:38:57;12.05;;;10.75;;
26574;SDS011;67165;50.256;10.978;2023-08-17T05:41:23;11.35;;;10.13;;
26574;SDS011;67165;50.256;10.978;2023-08-17T05:43:48;12.50;;;10.65;;
26574;SDS011;67165;50.256;10.978;2023-08-17T05:46:15;12.15;;;10.85;;
26574;SDS011;67165;50.256;10.978;2023-08-17T05:48:41;11.82;;;10.63;;
26574;SDS011;67165;50.256;10.978;2023-08-17T05:51:06;12.63;;;10.07;;
26574;SDS011;67165;50.256;10.978;2023-08-17T05:53:32;15.43;;;10.50;;
26574;SDS011;67165;50.256;10.978;2023-08-17T05:55:58;15.55;;;10.18;;
26574;SDS011;67165;50.256;10.978;2023-08-17T05:58:23;14.75;;;11.18;;
26574;SDS011;67165;50.256;10.978;2023-08-17T06:00:49;11.20;;;10.07;;
26574;SDS011;67165;50.256;10.978;2023-08-17T06:03:15;11.70;;;10.50;;
26574;SDS011;67165;50.256;10.978;2023-08-17T06:05:40;13.73;;;10.43;;
26574;SDS011;67165;50.256;10.978;2023-08-17T06:08:06;11.75;;;10.55;;
26574;SDS011;67165;50.256;10.978;2023-08-17T06:10:32;10.88;;;9.60;;
26574;SDS011;67165;50.256;10.978;2023-08-17T06:12:57;11.20;;;10.00;;
26574;SDS011;67165;50.256;10.978;2023-08-17T06:15:23;13.57;;;9.82;;
26574;SDS011;67165;50.256;10.978;2023-08-17T06:17:49;10.77;;;9.68;;
26574;SDS011;67165;50.256;10.978;2023-08-17T06:20:15;12.82;;;9.70;;
26574;SDS011;67165;50.256;10.978;2023-08-17T06:22:42;11.50;;;10.18;;
26574;SDS011;67165;50.256;10.978;2023-08-17T06:25:07;15.45;;;10.38;;
26574;SDS011;67165;50.256;10.978;2023-08-17T06:27:34;13.93;;;11.18;;
26574;SDS011;67165;50.256;10.978;2023-08-17T06:30:01;16.52;;;12.05;;
26574;SDS011;67165;50.256;10.978;2023-08-17T06:32:28;19.45;;;11.63;;
26574;SDS011;67165;50.256;10.978;2023-08-17T06:34:54;12.20;;;10.90;;
26574;SDS011;67165;50.256;10.978;2023-08-17T06:37:19;14.77;;;12.38;;
26574;SDS011;67165;50.256;10.978;2023-08-17T06:39:45;17.45;;;11.90;;
26574;SDS011;67165;50.256;10.978;2023-08-17T06:42:10;14.10;;;11.40;;
26574;SDS011;67165;50.256;10.978;2023-08-17T06:44:37;17.65;;;12.52;;
26574;SDS011;67165;50.256;10.978;2023-08-17T06:47:03;14.98;;;12.77;;
26574;SDS011;67165;50.256;10.978;2023-08-17T06:49:31;15.48;;;11.90;;
26574;SDS011;67165;50.256;10.978;2023-08-17T06:51:57;12.50;;;11.20;;
26574;SDS011;67165;50.256;10.978;2023-08-17T06:54:22;14.25;;;12.05;;
26574;SDS011;67165;50.256;10.978;2023-08-17T06:56:48;14.00;;;10.88;;
26574;SDS011;67165;50.256;10.978;2023-08-17T06:59:13;15.38;;;11.15;;
26574;SDS011;67165;50.256;10.978;2023-08-17T07:01:39;12.45;;;11.20;;
26574;SDS011;67165;50.256;10.978;2023-08-17T07:04:05;13.63;;;11.93;;
26574;SDS011;67165;50.256;10.978;2023-08-17T07:06:30;16.23;;;12.23;;
26574;SDS011;67165;50.256;10.978;2023-08-17T07:08:56;13.82;;;12.38;;
26574;SDS011;67165;50.256;10.978;2023-08-17T07:11:22;13.45;;;12.10;;
26574;SDS011;67165;50.256;10.978;2023-08-17T07:13:47;13.20;;;11.48;;
26574;SDS011;67165;50.256;10.978;2023-08-17T07:16:13;15.27;;;12.35;;
26574;SDS011;67165;50.256;10.978;2023-08-17T07:18:39;12.93;;;11.30;;
26574;SDS011;67165;50.256;10.978;2023-08-17T07:21:05;12.93;;;11.05;;
26574;SDS011;67165;50.256;10.978;2023-08-17T07:23:31;13.45;;;12.00;;
26574;SDS011;67165;50.256;10.978;2023-08-17T07:25:57;15.68;;;12.02;;
26574;SDS011;67165;50.256;10.978;2023-08-17T07:28:22;15.95;;;12.20;;
26574;SDS011;67165;50.256;10.978;2023-08-17T07:30:48;14.88;;;11.52;;
26574;SDS011;67165;50.256;10.978;2023-08-17T07:33:14;14.32;;;12.73;;
26574;SDS011;67165;50.256;10.978;2023-08-17T07:35:39;13.35;;;11.93;;
26574;SDS011;67165;50.256;10.978;2023-08-17T07:38:05;14.52;;;12.63;;
26574;SDS011;67165;50.256;10.978;2023-08-17T07:40:31;15.77;;;11.88;;
26574;SDS011;67165;50.256;10.978;2023-08-17T07:42:56;16.27;;;12.48;;
26574;SDS011;67165;50.256;10.978;2023-08-17T07:45:22;15.63;;;12.43;;
26574;SDS011;67165;50.256;10.978;2023-08-17T07:47:48;13.27;;;11.88;;
26574;SDS011;67165;50.256;10.978;2023-08-17T07:50:13;15.27;;;12.73;;
26574;SDS011;67165;50.256;10.978;2023-08-17T07:52:39;13.43;;;11.75;;
26574;SDS011;67165;50.256;10.978;2023-08-17T07:55:05;16.25;;;11.32;;
26574;SDS011;67165;50.256;10.978;2023-08-17T07:57:30;13.88;;;11.98;;
26574;SDS011;67165;50.256;10.978;2023-08-17T07:59:56;12.63;;;10.23;;
26574;SDS011;67165;50.256;10.978;2023-08-17T08:02:22;11.95;;;10.75;;
26574;SDS011;67165;50.256;10.978;2023-08-17T08:04:47;14.77;;;11.30;;
26574;SDS011;67165;50.256;10.978;2023-08-17T08:07:13;12.88;;;11.30;;
26574;SDS011;67165;50.256;10.978;2023-08-17T08:09:38;14.95;;;10.85;;
26574;SDS011;67165;50.256;10.978;2023-08-17T08:12:04;11.77;;;10.68;;
26574;SDS011;67165;50.256;10.978;2023-08-17T08:14:30;13.20;;;11.63;;
26574;SDS011;67165;50.256;10.978;2023-08-17T08:16:56;11.27;;;9.98;;
26574;SDS011;67165;50.256;10.978;2023-08-17T08:19:21;14.00;;;10.35;;
26574;SDS011;67165;50.256;10.978;2023-08-17T08:21:47;12.10;;;10.05;;
26574;SDS011;67165;50.256;10.978;2023-08-17T08:24:13;11.13;;;10.02;;
26574;SDS011;67165;50.256;10.978;2023-08-17T08:26:38;10.73;;;9.60;;
26574;SDS011;67165;50.256;10.978;2023-08-17T08:29:04;12.40;;;10.20;;
26574;SDS011;67165;50.256;10.978;2023-08-17T08:31:30;11.15;;;9.63;;
26574;SDS011;67165;50.256;10.978;2023-08-17T08:33:55;10.63;;;9.57;;
26574;SDS011;67165;50.256;10.978;2023-08-17T08:36:21;10.52;;;9.43;;
26574;SDS011;67165;50.256;10.978;2023-08-17T08:38:46;10.32;;;9.32;;
26574;SDS011;67165;50.256;10.978;2023-08-17T08:41:12;15.63;;;10.00;;
26574;SDS011;67165;50.256;10.978;2023-08-17T08:43:38;16.30;;;10.10;;
26574;SDS011;67165;50.256;10.978;2023-08-17T08:46:04;10.18;;;8.98;;
26574;SDS011;67165;50.256;10.978;2023-08-17T08:48:31;10.07;;;8.75;;
26574;SDS011;67165;50.256;10.978;2023-08-17T08:50:59;14.50;;;10.10;;
26574;SDS011;67165;50.256;10.978;2023-08-17T08:53:46;10.00;;;9.00;;
26574;SDS011;67165;50.256;10.978;2023-08-17T08:56:14;11.50;;;9.20;;
26574;SDS011;67165;50.256;10.978;2023-08-17T08:58:42;12.38;;;9.85;;
26574;SDS011;67165;50.256;10.978;2023-08-17T09:01:08;10.52;;;9.20;;
26574;SDS011;67165;50.256;10.978;2023-08-17T09:03:35;15.30;;;10.93;;
26574;SDS011;67165;50.256;10.978;2023-08-17T09:06:02;12.32;;;9.45;;
26574;SDS011;67165;50.256;10.978;2023-08-17T09:08:29;17.52;;;9.73;;
26574;SDS011;67165;50.256;10.978;2023-08-17T09:10:56;14.07;;;9.90;;
26574;SDS011;67165;50.256;10.978;2023-08-17T09:13:22;10.48;;;8.98;;
26574;SDS011;67165;50.256;10.978;2023-08-17T09:15:48;13.52;;;9.48;;
26574;SDS011;67165;50.256;10.978;2023-08-17T09:18:14;9.73;;;8.73;;
26574;SDS011;67165;50.256;10.978;2023-08-17T09:20:42;9.82;;;8.90;;
26574;SDS011;67165;50.256;10.978;2023-08-17T09:23:10;10.75;;;8.65;;
26574;SDS011;67165;50.256;10.978;2023-08-17T09:25:38;11.50;;;9.45;;
26574;SDS011;67165;50.256;10.978;2023-08-17T09:28:08;10.43;;;9.23;;
26574;SDS011;67165;50.256;10.978;2023-08-17T09:30:54;12.02;;;9.15;;
26574;SDS011;67165;50.256;10.978;2023-08-17T09:33:22;11.02;;;9.25;;
26574;SDS011;67165;50.256;10.978;2023-08-17T09:35:49;12.02;;;9.50;;
26574;SDS011;67165;50.256;10.978;2023-08-17T09:38:16;9.93;;;8.70;;
26574;SDS011;67165;50.256;10.978;2023-08-17T09:40:42;10.65;;;8.60;;
26574;SDS011;67165;50.256;10.978;2023-08-17T09:43:08;10.63;;;8.50;;
26574;SDS011;67165;50.256;10.978;2023-08-17T09:45:35;11.50;;;9.00;;
26574;SDS011;67165;50.256;10.978;2023-08-17T09:48:04;9.48;;;7.80;;
26574;SDS011;67165;50.256;10.978;2023-08-17T09:50:32;11.60;;;8.73;;
26574;SDS011;67165;50.256;10.978;2023-08-17T09:52:58;10.13;;;8.30;;
26574;SDS011;67165;50.256;10.978;2023-08-17T09:55:24;11.15;;;8.40;;
26574;SDS011;67165;50.256;10.978;2023-08-17T09:57:51;9.57;;;8.38;;
26574;SDS011;67165;50.256;10.978;2023-08-17T10:00:20;8.80;;;7.90;;
26574;SDS011;67165;50.256;10.978;2023-08-17T10:02:49;8.40;;;7.50;;
26574;SDS011;67165;50.256;10.978;2023-08-17T10:05:16;9.57;;;7.82;;
26574;SDS011;67165;50.256;10.978;2023-08-17T10:07:49;11.50;;;8.88;;
26574;SDS011;67165;50.256;10.978;2023-08-17T10:10:22;10.82;;;8.50;;
26574;SDS011;67165;50.256;10.978;2023-08-17T10:24:00;8.70;;;7.78;;
26574;SDS011;67165;50.256;10.978;2023-08-17T10:26:28;9.52;;;8.63;;
26574;SDS011;67165;50.256;10.978;2023-08-17T10:28:54;9.00;;;8.05;;
26574;SDS011;67165;50.256;10.978;2023-08-17T10:31:23;10.60;;;8.60;;
26574;SDS011;67165;50.256;10.978;2023-08-17T10:33:50;8.45;;;7.55;;
26574;SDS011;67165;50.256;10.978;2023-08-17T10:36:16;8.10;;;7.30;;
26574;SDS011;67165;50.256;10.978;2023-08-17T10:38:43;8.73;;;7.32;;
26574;SDS011;67165;50.256;10.978;2023-08-17T10:41:12;8.43;;;7.63;;
26574;SDS011;67165;50.256;10.978;2023-08-17T10:43:54;8.55;;;7.60;;
26574;SDS011;67165;50.256;10.978;2023-08-17T10:46:37;8.50;;;7.70;;
26574;SDS011;67165;50.256;10.978;2023-08-17T10:49:05;7.65;;;6.60;;
26574;SDS011;67165;50.256;10.978;2023-08-17T10:51:32;7.47;;;6.63;;
26574;SDS011;67165;50.256;10.978;2023-08-17T10:54:01;7.22;;;6.53;;
26574;SDS011;67165;50.256;10.978;2023-08-17T10:56:28;8.98;;;6.75;;
26574;SDS011;67165;50.256;10.978;2023-08-17T10:58:54;7.75;;;6.55;;
26574;SDS011;67165;50.256;10.978;2023-08-17T11:01:33;7.63;;;6.60;;
26574;SDS011;67165;50.256;10.978;2023-08-17T11:04:12;7.07;;;6.38;;
26574;SDS011;67165;50.256;10.978;2023-08-17T11:06:42;7.78;;;6.20;;
26574;SDS011;67165;50.256;10.978;2023-08-17T11:09:08;7.55;;;6.85;;
26574;SDS011;67165;50.256;10.978;2023-08-17T11:11:34;7.95;;;5.93;;
26574;SDS011;67165;50.256;10.978;2023-08-17T11:14:00;6.75;;;6.05;;
26574;SDS011;67165;50.256;10.978;2023-08-17T11:16:25;7.50;;;6.20;;
26574;SDS011;67165;50.256;10.978;2023-08-17T11:18:51;9.52;;;6.43;;
26574;SDS011;67165;50.256;10.978;2023-08-17T11:21:17;6.82;;;5.68;;
26574;SDS011;67165;50.256;10.978;2023-08-17T11:23:44;8.18;;;6.25;;
26574;SDS011;67165;50.256;10.978;2023-08-17T11:26:09;7.70;;;5.80;;
26574;SDS011;67165;50.256;10.978;2023-08-17T11:28:35;6.72;;;6.05;;
26574;SDS011;67165;50.256;10.978;2023-08-17T11:31:12;7.22;;;5.22;;
26574;SDS011;67165;50.256;10.978;2023-08-17T11:33:40;9.30;;;5.95;;
26574;SDS011;67165;50.256;10.978;2023-08-17T11:36:06;5.72;;;5.22;;
26574;SDS011;67165;50.256;10.978;2023-08-17T11:38:37;10.88;;;6.25;;
26574;SDS011;67165;50.256;10.978;2023-08-17T11:41:03;8.35;;;5.50;;
26574;SDS011;67165;50.256;10.978;2023-08-17T11:43:30;6.82;;;6.13;;
26574;SDS011;67165;50.256;10.978;2023-08-17T11:45:57;14.95;;;7.60;;
26574;SDS011;67165;50.256;10.978;2023-08-17T11:48:23;6.03;;;5.43;;
26574;SDS011;67165;50.256;10.978;2023-08-17T11:50:49;7.78;;;5.60;;
26574;SDS011;67165;50.256;10.978;2023-08-17T11:53:16;7.20;;;5.85;;
26574;SDS011;67165;50.256;10.978;2023-08-17T11:55:41;10.20;;;6.13;;
26574;SDS011;67165;50.256;10.978;2023-08-17T11:58:07;6.95;;;6.05;;
26574;SDS011;67165;50.256;10.978;2023-08-17T12:00:36;9.80;;;6.50;;
26574;SDS011;67165;50.256;10.978;2023-08-17T12:03:05;7.32;;;5.85;;
26574;SDS011;67165;50.256;10.978;2023-08-17T12:05:31;6.97;;;6.18;;
26574;SDS011;67165;50.256;10.978;2023-08-17T12:08:00;10.57;;;5.85;;
26574;SDS011;67165;50.256;10.978;2023-08-17T12:10:30;6.50;;;5.78;;
26574;SDS011;67165;50.256;10.978;2023-08-17T12:12:57;7.35;;;5.68;;
26574;SDS011;67165;50.256;10.978;2023-08-17T12:15:25;7.40;;;6.10;;
26574;SDS011;67165;50.256;10.978;2023-08-17T12:17:59;7.65;;;5.50;;
26574;SDS011;67165;50.256;10.978;2023-08-17T12:20:26;6.45;;;5.57;;
26574;SDS011;67165;50.256;10.978;2023-08-17T12:22:52;7.93;;;5.53;;
26574;SDS011;67165;50.256;10.978;2023-08-17T12:25:20;6.45;;;5.43;;
26574;SDS011;67165;50.256;10.978;2023-08-17T12:27:49;7.22;;;5.25;;
26574;SDS011;67165;50.256;10.978;2023-08-17T12:30:28;7.45;;;5.47;;
26574;SDS011;67165;50.256;10.978;2023-08-17T12:32:57;6.30;;;5.65;;
26574;SDS011;67165;50.256;10.978;2023-08-17T12:35:24;9.65;;;6.07;;
26574;SDS011;67165;50.256;10.978;2023-08-17T12:37:50;7.57;;;5.13;;
26574;SDS011;67165;50.256;10.978;2023-08-17T12:40:17;6.68;;;5.38;;
26574;SDS011;67165;50.256;10.978;2023-08-17T12:42:43;5.75;;;5.25;;
26574;SDS011;67165;50.256;10.978;2023-08-17T12:45:08;6.00;;;5.18;;
26574;SDS011;67165;50.256;10.978;2023-08-17T12:47:34;6.45;;;5.15;;
26574;SDS011;67165;50.256;10.978;2023-08-17T12:50:00;6.80;;;5.72;;
26574;SDS011;67165;50.256;10.978;2023-08-17T12:52:27;7.25;;;5.47;;
26574;SDS011;67165;50.256;10.978;2023-08-17T12:54:53;5.82;;;5.18;;
26574;SDS011;67165;50.256;10.978;2023-08-17T12:57:18;8.07;;;5.38;;
26574;SDS011;67165;50.256;10.978;2023-08-17T12:59:44;6.07;;;5.30;;
26574;SDS011;67165;50.256;10.978;2023-08-17T13:02:10;6.35;;;5.72;;
26574;SDS011;67165;50.256;10.978;2023-08-17T13:04:36;7.28;;;5.55;;
26574;SDS011;67165;50.256;10.978;2023-08-17T13:07:02;5.78;;;5.18;;
26574;SDS011;67165;50.256;10.978;2023-08-17T13:09:27;7.88;;;6.18;;
26574;SDS011;67165;50.256;10.978;2023-08-17T13:11:53;6.88;;;6.05;;
26574;SDS011;67165;50.256;10.978;2023-08-17T13:14:19;5.88;;;5.10;;
26574;SDS011;67165;50.256;10.978;2023-08-17T13:16:44;8.48;;;5.70;;
26574;SDS011;67165;50.256;10.978;2023-08-17T13:19:10;6.65;;;5.38;;
26574;SDS011;67165;50.256;10.978;2023-08-17T13:21:35;7.07;;;5.70;;
26574;SDS011;67165;50.256;10.978;2023-08-17T13:24:01;6.53;;;5.60;;
26574;SDS011;67165;50.256;10.978;2023-08-17T13:26:28;8.30;;;5.40;;
26574;SDS011;67165;50.256;10.978;2023-08-17T13:28:55;6.40;;;5.80;;
26574;SDS011;67165;50.256;10.978;2023-08-17T13:31:20;7.68;;;5.32;;
26574;SDS011;67165;50.256;10.978;2023-08-17T13:33:46;6.68;;;5.55;;
26574;SDS011;67165;50.256;10.978;2023-08-17T13:36:12;5.95;;;5.38;;
26574;SDS011;67165;50.256;10.978;2023-08-17T13:38:37;6.00;;;5.47;;
26574;SDS011;67165;50.256;10.978;2023-08-17T13:41:05;7.30;;;5.60;;
26574;SDS011;67165;50.256;10.978;2023-08-17T13:43:30;6.35;;;5.35;;
26574;SDS011;67165;50.256;10.978;2023-08-17T13:45:56;7.40;;;5.78;;
26574;SDS011;67165;50.256;10.978;2023-08-17T13:48:21;7.95;;;5.50;;
26574;SDS011;67165;50.256;10.978;2023-08-17T13:50:47;9.90;;;5.97;;
26574;SDS011;67165;50.256;10.978;2023-08-17T13:53:13;7.13;;;5.90;;
26574;SDS011;67165;50.256;10.978;2023-08-17T13:55:39;8.38;;;5.65;;
26574;SDS011;67165;50.256;10.978;2023-08-17T13:58:04;8.85;;;5.63;;
26574;SDS011;67165;50.256;10.978;2023-08-17T14:00:30;6.95;;;5.50;;
26574;SDS011;67165;50.256;10.978;2023-08-17T14:02:56;6.50;;;5.80;;
26574;SDS011;67165;50.256;10.978;2023-08-17T14:05:22;6.30;;;5.68;;
26574;SDS011;67165;50.256;10.978;2023-08-17T14:07:48;9.65;;;5.40;;
26574;SDS011;67165;50.256;10.978;2023-08-17T14:10:13;7.20;;;6.18;;
26574;SDS011;67165;50.256;10.978;2023-08-17T14:12:39;9.05;;;5.25;;
26574;SDS011;67165;50.256;10.978;2023-08-17T14:15:05;6.57;;;5.75;;
26574;SDS011;67165;50.256;10.978;2023-08-17T14:17:31;8.43;;;5.85;;
26574;SDS011;67165;50.256;10.978;2023-08-17T14:19:57;6.32;;;5.57;;
26574;SDS011;67165;50.256;10.978;2023-08-17T14:22:23;9.70;;;6.30;;
26574;SDS011;67165;50.256;10.978;2023-08-17T14:24:48;6.85;;;5.68;;
26574;SDS011;67165;50.256;10.978;2023-08-17T14:27:14;5.78;;;5.18;;
26574;SDS011;67165;50.256;10.978;2023-08-17T14:29:39;6.13;;;5.40;;
26574;SDS011;67165;50.256;10.978;2023-08-17T14:32:06;6.78;;;5.72;;
26574;SDS011;67165;50.256;10.978;2023-08-17T14:34:32;6.47;;;5.80;;
26574;SDS011;67165;50.256;10.978;2023-08-17T14:36:57;6.07;;;5.53;;